createdAt,value
2022-11-21T00:01:16.283Z,46.22
2022-11-21T00:03:46.415Z,58.38
2022-11-21T00:06:14.089Z,53.03
2022-11-21T00:08:42.221Z,51.30
2022-11-21T00:11:10.172Z,55.13
2022-11-21T00:13:38.310Z,51.83
2022-11-21T00:16:07.287Z,46.45
2022-11-21T00:18:35.824Z,53.67
2022-11-21T00:21:09.673Z,48.15
2022-11-21T00:23:37.622Z,47.35
2022-11-21T00:26:07.134Z,49.45
2022-11-21T00:28:35.183Z,50.08
2022-11-21T00:31:03.164Z,45.28
2022-11-21T00:33:32.281Z,50.55
2022-11-21T00:36:00.015Z,47.08
2022-11-21T00:38:29.769Z,64.47
2022-11-21T00:40:57.426Z,54.60
2022-11-21T00:43:25.116Z,75.30
2022-11-21T00:45:52.800Z,49.85
2022-11-21T00:48:20.547Z,45.20
2022-11-21T00:50:50.921Z,52.00
2022-11-21T00:53:18.659Z,63.28
2022-11-21T00:55:47.674Z,58.22
2022-11-21T00:58:15.390Z,45.63
2022-11-21T01:00:43.164Z,60.40
2022-11-21T01:03:10.949Z,82.88
2022-11-21T01:05:38.600Z,71.28
2022-11-21T01:08:06.494Z,49.88
2022-11-21T01:10:35.164Z,49.97
2022-11-21T01:13:05.272Z,49.15
2022-11-21T01:15:32.960Z,56.60
2022-11-21T01:18:00.654Z,53.22
2022-11-21T01:20:28.330Z,68.35
2022-11-21T01:22:56.075Z,70.10
2022-11-21T01:25:23.735Z,53.50
2022-11-21T01:27:51.469Z,61.63
2022-11-21T01:30:20.624Z,41.83
2022-11-21T01:32:49.604Z,60.92
2022-11-21T01:35:17.292Z,49.58
2022-11-21T01:37:47.824Z,48.63
2022-11-21T01:40:15.966Z,47.30
2022-11-21T01:43:12.602Z,43.67
2022-11-21T01:45:57.776Z,57.33
2022-11-21T01:48:30.938Z,50.75
2022-11-21T01:51:03.303Z,72.35
2022-11-21T01:53:31.055Z,41.72
2022-11-21T01:55:58.815Z,41.63
2022-11-21T01:58:27.017Z,47.95
2022-11-21T02:00:56.218Z,46.67
2022-11-21T02:03:28.691Z,54.83
2022-11-21T02:05:57.092Z,42.88
2022-11-21T02:08:27.463Z,41.05
2022-11-21T02:11:05.840Z,42.33
2022-11-21T02:13:33.617Z,52.67
2022-11-21T02:16:03.464Z,44.60
2022-11-21T02:18:31.135Z,38.38
2022-11-21T02:21:05.851Z,44.55
2022-11-21T02:23:41.147Z,38.58
2022-11-21T02:26:11.247Z,38.13
2022-11-21T02:28:39.034Z,46.55
2022-11-21T02:31:06.697Z,41.78
2022-11-21T02:33:35.217Z,57.97
2022-11-21T02:36:04.183Z,41.05
2022-11-21T02:38:34.462Z,43.08
2022-11-21T02:41:08.025Z,39.83
2022-11-21T02:43:43.187Z,41.97
2022-11-21T02:46:10.856Z,40.90
2022-11-21T02:48:39.112Z,45.47
2022-11-21T02:51:06.782Z,42.40
2022-11-21T02:53:34.443Z,53.42
2022-11-21T02:56:02.186Z,60.72
2022-11-21T02:58:30.084Z,47.25
2022-11-21T03:01:01.323Z,71.43
2022-11-21T03:03:29.061Z,52.05
2022-11-21T03:05:57.730Z,52.10
2022-11-21T03:08:25.424Z,55.75
2022-11-21T03:10:53.067Z,43.90
2022-11-21T03:13:20.769Z,63.90
2022-11-21T03:15:48.425Z,55.05
2022-11-21T03:18:17.546Z,58.63
2022-11-21T03:20:45.197Z,42.08
2022-11-21T03:23:12.932Z,52.58
2022-11-21T03:25:40.691Z,38.95
2022-11-21T03:28:08.383Z,47.22
2022-11-21T03:30:36.108Z,45.38
2022-11-21T03:33:03.806Z,41.50
2022-11-21T03:35:32.888Z,43.95
2022-11-21T03:38:00.584Z,45.85
2022-11-21T03:40:28.304Z,44.75
2022-11-21T03:42:55.976Z,43.08
2022-11-21T03:45:23.650Z,41.05
2022-11-21T03:47:51.353Z,58.78
2022-11-21T03:50:20.958Z,52.50
2022-11-21T03:52:52.613Z,42.17
2022-11-21T03:55:20.620Z,60.87
2022-11-21T03:57:48.413Z,58.80
2022-11-21T04:00:17.511Z,50.50
2022-11-21T04:02:45.210Z,49.83
2022-11-21T04:05:12.888Z,40.17
2022-11-21T04:07:40.608Z,44.05
2022-11-21T04:10:10.787Z,56.45
2022-11-21T04:12:38.566Z,43.72
2022-11-21T04:15:13.192Z,44.03
2022-11-21T04:17:41.490Z,40.33
2022-11-21T04:20:10.169Z,45.55
2022-11-21T04:22:37.857Z,72.53
2022-11-21T04:25:06.268Z,68.80
2022-11-21T04:27:35.369Z,48.53
2022-11-21T04:30:03.081Z,54.90
2022-11-21T04:32:30.726Z,66.57
2022-11-21T04:34:58.378Z,67.05
2022-11-21T04:37:26.103Z,46.05
2022-11-21T04:39:53.790Z,58.08
2022-11-21T04:42:21.533Z,52.17
2022-11-21T04:44:50.620Z,66.75
2022-11-21T04:47:18.391Z,56.67
2022-11-21T04:52:26.989Z,111.28
2022-11-21T04:54:54.658Z,87.13
2022-11-21T04:57:22.354Z,65.18
2022-11-21T04:59:50.100Z,76.22
2022-11-21T05:02:17.828Z,110.50
2022-11-21T05:04:45.620Z,74.15
2022-11-21T05:07:16.462Z,68.90
2022-11-21T05:09:45.563Z,122.25
2022-11-21T05:12:30.884Z,60.75
2022-11-21T05:15:01.469Z,86.32
2022-11-21T05:17:29.845Z,79.60
2022-11-21T05:19:57.530Z,55.75
2022-11-21T05:22:25.254Z,49.03
2022-11-21T05:24:54.360Z,46.78
2022-11-21T05:27:22.063Z,66.18
2022-11-21T05:29:49.718Z,75.07
2022-11-21T05:32:17.447Z,51.60
2022-11-21T05:34:45.106Z,48.20
2022-11-21T05:37:12.766Z,45.80
2022-11-21T05:39:40.431Z,49.75
2022-11-21T05:42:09.459Z,47.15
2022-11-21T05:44:36.072Z,75.50
2022-11-21T05:47:03.703Z,68.60
2022-11-21T05:49:31.382Z,58.55
2022-11-21T05:51:59.045Z,65.25
2022-11-21T05:54:28.189Z,71.07
2022-11-21T05:56:56.064Z,54.03
2022-11-21T05:59:25.044Z,54.75
2022-11-21T06:02:10.086Z,58.72
2022-11-21T06:04:37.790Z,84.70
2022-11-21T06:07:06.158Z,69.35
2022-11-21T06:09:33.936Z,66.15
2022-11-21T06:12:01.553Z,66.35
2022-11-21T06:14:30.777Z,86.20
2022-11-21T06:16:58.498Z,83.05
2022-11-21T06:19:26.126Z,47.17
2022-11-21T06:21:53.767Z,55.47
2022-11-21T06:24:22.440Z,63.20
2022-11-21T06:26:50.197Z,46.80
2022-11-21T06:29:17.863Z,53.35
2022-11-21T06:31:46.849Z,60.22
2022-11-21T06:34:14.881Z,90.95
2022-11-21T06:36:44.619Z,67.85
2022-11-21T06:39:12.330Z,69.88
2022-11-21T06:41:40.024Z,86.65
2022-11-21T06:44:07.810Z,81.90
2022-11-21T06:46:35.503Z,95.50
2022-11-21T06:49:04.776Z,78.40
2022-11-21T06:51:32.446Z,72.53
2022-11-21T06:54:00.736Z,128.00
2022-11-21T06:56:30.483Z,94.85
2022-11-21T06:58:58.645Z,116.80
2022-11-21T07:01:26.778Z,113.28
2022-11-21T07:03:57.829Z,123.75
2022-11-21T07:06:27.260Z,124.50
2022-11-21T07:09:25.542Z,74.80
2022-11-21T07:11:43.575Z,97.63
2022-11-21T07:14:10.284Z,114.63
2022-11-21T07:16:38.284Z,83.88
2022-11-21T07:19:06.466Z,139.82
2022-11-21T07:21:35.547Z,115.60
2022-11-21T07:24:03.312Z,112.82
2022-11-21T07:26:31.079Z,92.07
2022-11-21T07:28:59.800Z,124.43
2022-11-21T07:31:27.629Z,94.78
2022-11-21T07:33:55.268Z,94.60
2022-11-21T07:36:23.066Z,116.70
2022-11-21T07:38:52.129Z,106.70
2022-11-21T07:41:19.836Z,94.93
2022-11-21T07:43:47.551Z,119.35
2022-11-21T07:46:15.258Z,85.05
2022-11-21T07:48:42.941Z,95.93
2022-11-21T07:51:11.099Z,104.88
2022-11-21T07:53:38.826Z,106.82
2022-11-21T07:56:09.512Z,99.63
2022-11-21T07:58:37.651Z,110.10
2022-11-21T08:01:06.414Z,73.53
2022-11-21T08:03:34.579Z,94.40
2022-11-21T08:06:03.783Z,89.28
2022-11-21T08:08:31.804Z,104.47
2022-11-21T08:10:59.471Z,88.57
2022-11-21T08:13:30.156Z,79.03
2022-11-21T08:15:57.884Z,77.63
2022-11-21T08:18:26.336Z,75.05
2022-11-21T08:20:54.004Z,77.80
2022-11-21T08:23:21.727Z,87.70
2022-11-21T08:25:51.451Z,87.32
2022-11-21T08:28:19.123Z,100.28
2022-11-21T08:30:48.265Z,69.85
2022-11-21T08:33:16.661Z,84.90
2022-11-21T08:35:44.357Z,94.13
2022-11-21T08:38:11.995Z,106.38
2022-11-21T08:40:41.288Z,91.47
2022-11-21T08:43:10.491Z,107.03
2022-11-21T08:45:39.260Z,111.85
2022-11-21T08:48:12.463Z,106.03
2022-11-21T08:50:40.534Z,87.03
2022-11-21T08:53:08.264Z,95.22
2022-11-21T08:55:36.000Z,87.90
2022-11-21T08:58:03.736Z,125.45
2022-11-21T09:00:31.427Z,105.43
2022-11-21T09:02:59.057Z,119.03
2022-11-21T09:05:28.081Z,97.25
2022-11-21T09:07:58.979Z,88.65
2022-11-21T09:10:27.233Z,106.63
2022-11-21T09:12:54.975Z,113.45
2022-11-21T09:15:40.169Z,110.15
2022-11-21T09:18:08.208Z,110.07
2022-11-21T09:20:40.820Z,135.82
2022-11-21T09:25:36.947Z,111.70
2022-11-21T09:28:06.570Z,103.18
2022-11-21T09:30:34.501Z,90.15
2022-11-21T09:33:02.809Z,145.00
2022-11-21T09:35:30.850Z,110.32
2022-11-21T09:38:00.093Z,95.38
2022-11-21T09:40:30.169Z,94.90
2022-11-21T09:43:27.369Z,95.65
2022-11-21T09:46:02.526Z,125.60
2022-11-21T09:48:35.205Z,121.13
2022-11-21T09:51:07.001Z,136.73
2022-11-21T09:53:40.649Z,106.30
2022-11-21T09:56:14.103Z,113.95
2022-11-21T09:58:44.935Z,144.15
2022-11-21T10:01:13.681Z,104.13
2022-11-21T10:03:43.956Z,93.05
2022-11-21T10:06:19.755Z,92.65
2022-11-21T10:08:58.172Z,92.82
2022-11-21T10:12:02.679Z,95.90
2022-11-21T10:14:49.006Z,96.10
2022-11-21T10:17:27.497Z,107.85
2022-11-21T10:20:17.543Z,114.50
2022-11-21T10:23:11.226Z,110.95
2022-11-21T10:25:44.550Z,80.78
2022-11-21T10:28:18.486Z,90.38
2022-11-21T10:30:48.150Z,91.95
2022-11-21T10:33:24.680Z,96.57
2022-11-21T10:35:54.457Z,101.15
2022-11-21T10:38:24.581Z,89.55
2022-11-21T10:41:02.058Z,88.55
2022-11-21T10:43:53.528Z,112.05
2022-11-21T10:46:21.327Z,107.32
2022-11-21T10:48:57.083Z,91.75
2022-11-21T10:51:37.868Z,90.57
2022-11-21T10:54:25.628Z,110.18
2022-11-21T10:56:57.711Z,71.60
2022-11-21T10:59:31.222Z,81.40
2022-11-21T11:02:01.155Z,84.47
2022-11-21T11:04:35.369Z,91.25
2022-11-21T11:07:22.894Z,66.88
2022-11-21T11:09:52.334Z,76.60
2022-11-21T11:12:45.577Z,85.97
2022-11-21T11:15:20.303Z,68.32
2022-11-21T11:17:52.969Z,67.35
2022-11-21T11:20:34.080Z,58.30
2022-11-21T11:23:15.990Z,56.85
2022-11-21T11:25:48.091Z,36.35
2022-11-21T11:28:19.240Z,45.28
2022-11-21T11:30:48.222Z,40.20
2022-11-21T11:33:33.156Z,34.65
2022-11-21T11:36:13.042Z,29.50
2022-11-21T11:38:44.519Z,29.02
2022-11-21T11:41:22.832Z,30.75
2022-11-21T11:44:20.023Z,26.98
2022-11-21T11:47:15.810Z,26.25
2022-11-21T11:50:08.660Z,32.95
2022-11-21T11:55:17.819Z,26.45
2022-11-21T11:57:47.010Z,25.77
2022-11-21T12:00:28.187Z,24.50
2022-11-21T12:03:01.608Z,31.55
2022-11-21T12:05:31.485Z,28.23
2022-11-21T12:08:40.027Z,29.95
2022-11-21T12:11:23.685Z,28.08
2022-11-21T12:13:56.693Z,27.63
2022-11-21T12:16:27.881Z,25.45
2022-11-21T12:19:01.076Z,23.45
2022-11-21T12:21:29.516Z,27.92
2022-11-21T12:23:58.862Z,24.42
2022-11-21T12:26:35.872Z,25.88
2022-11-21T12:29:15.033Z,24.95
2022-11-21T12:32:06.756Z,19.55
2022-11-21T12:34:53.628Z,19.80
2022-11-21T12:37:32.446Z,19.58
2022-11-21T12:40:03.704Z,16.23
2022-11-21T12:42:51.407Z,20.55
2022-11-21T12:45:37.818Z,23.15
2022-11-21T12:48:54.524Z,24.02
2022-11-21T12:52:03.381Z,23.60
2022-11-21T12:54:57.400Z,35.50
2022-11-21T12:57:37.559Z,55.70
2022-11-21T13:00:16.013Z,24.48
2022-11-21T13:03:21.190Z,62.72
2022-11-21T13:05:54.512Z,27.48
2022-11-21T13:08:25.445Z,36.60
2022-11-21T13:11:20.601Z,53.08
2022-11-21T13:13:53.108Z,25.73
2022-11-21T13:19:18.523Z,23.65
2022-11-21T13:21:48.853Z,25.58
2022-11-21T13:24:49.259Z,24.83
2022-11-21T13:27:30.044Z,23.67
2022-11-21T13:30:24.738Z,22.35
2022-11-21T13:32:54.466Z,24.02
2022-11-21T13:36:05.019Z,19.40
2022-11-21T13:39:03.565Z,20.75
2022-11-21T13:42:21.300Z,17.20
2022-11-21T13:44:49.469Z,17.80
2022-11-21T13:47:56.895Z,20.23
2022-11-21T13:50:57.550Z,15.95
2022-11-21T13:54:05.415Z,40.78
2022-11-21T13:56:42.482Z,25.08
2022-11-21T13:59:31.556Z,33.65
2022-11-21T14:02:29.854Z,19.35
2022-11-21T14:05:27.730Z,20.08
2022-11-21T14:07:55.672Z,20.83
2022-11-21T14:10:34.213Z,26.33
2022-11-21T14:13:04.418Z,21.85
2022-11-21T14:15:42.337Z,29.20
2022-11-21T14:18:21.448Z,19.77
2022-11-21T14:20:53.769Z,19.10
2022-11-21T14:23:25.812Z,25.73
2022-11-21T14:25:58.371Z,27.90
2022-11-21T14:30:58.723Z,44.55
2022-11-21T14:33:33.107Z,16.88
2022-11-21T14:36:04.877Z,47.83
2022-11-21T14:38:36.244Z,51.65
2022-11-21T14:41:32.741Z,48.28
2022-11-21T14:44:19.598Z,26.88
2022-11-21T14:46:48.185Z,34.47
2022-11-21T14:49:24.726Z,24.35
2022-11-21T14:51:58.899Z,24.67
2022-11-21T14:54:29.309Z,14.60
2022-11-21T14:57:01.280Z,17.98
2022-11-21T14:59:32.628Z,28.02
2022-11-21T15:02:08.210Z,55.08
2022-11-21T15:04:37.144Z,36.22
2022-11-21T15:07:05.861Z,41.25
2022-11-21T15:12:30.553Z,44.60
2022-11-21T15:15:01.644Z,52.08
2022-11-21T15:17:30.125Z,65.43
2022-11-21T15:20:18.828Z,39.03
2022-11-21T15:22:48.738Z,31.63
2022-11-21T15:25:19.521Z,48.42
2022-11-21T15:27:50.209Z,48.70
2022-11-21T15:30:24.965Z,34.90
2022-11-21T15:33:04.150Z,31.98
2022-11-21T15:35:55.069Z,31.65
2022-11-21T15:38:28.582Z,27.23
2022-11-21T15:41:11.591Z,34.60
2022-11-21T15:43:45.879Z,34.72
2022-11-21T15:46:16.479Z,22.13
2022-11-21T15:48:47.100Z,31.67
2022-11-21T15:51:15.363Z,23.20
2022-11-21T15:53:43.265Z,25.75
2022-11-21T15:56:16.990Z,22.00
2022-11-21T15:58:50.980Z,19.52
2022-11-21T16:01:20.719Z,16.80
2022-11-21T16:03:50.661Z,15.20
2022-11-21T16:06:18.859Z,18.90
2022-11-21T16:08:47.098Z,17.05
2022-11-21T16:11:21.155Z,15.65
2022-11-21T16:13:54.760Z,9.68
2022-11-21T16:16:24.176Z,15.45
2022-11-21T16:18:51.969Z,15.82
2022-11-21T16:21:20.101Z,13.57
2022-11-21T16:23:48.081Z,12.73
2022-11-21T16:26:16.729Z,13.10
2022-11-21T16:28:44.532Z,11.18
2022-11-21T16:31:24.546Z,16.13
2022-11-21T16:33:52.548Z,22.27
2022-11-21T16:36:21.301Z,18.38
2022-11-21T16:38:49.242Z,16.42
2022-11-21T16:41:18.676Z,10.77
2022-11-21T16:43:49.616Z,15.40
2022-11-21T16:46:20.105Z,9.90
2022-11-21T16:48:48.124Z,11.25
2022-11-21T16:51:18.026Z,9.73
2022-11-21T16:53:48.183Z,7.68
2022-11-21T16:56:17.357Z,10.70
2022-11-21T16:58:45.159Z,11.32
2022-11-21T17:01:16.295Z,12.15
2022-11-21T17:03:47.360Z,9.85
2022-11-21T17:06:17.938Z,11.27
2022-11-21T17:08:47.060Z,6.43
2022-11-21T17:11:16.347Z,7.72
2022-11-21T17:13:44.751Z,9.18
2022-11-21T17:16:13.262Z,7.72
2022-11-21T17:18:41.076Z,7.95
2022-11-21T17:21:13.227Z,5.43
2022-11-21T17:23:42.696Z,5.70
2022-11-21T17:26:12.494Z,9.40
2022-11-21T17:28:45.278Z,8.20
2022-11-21T17:31:15.208Z,7.70
2022-11-21T17:33:44.094Z,9.88
2022-11-21T17:36:15.672Z,8.15
2022-11-21T17:38:44.081Z,8.27
2022-11-21T17:41:13.356Z,9.50
2022-11-21T17:43:41.486Z,100.53
2022-11-21T17:46:13.170Z,51.38
2022-11-21T17:48:41.353Z,89.78
2022-11-21T17:51:17.040Z,17.52
2022-11-21T17:53:48.103Z,20.08
2022-11-21T17:56:18.375Z,18.45
2022-11-21T17:58:47.145Z,10.25
2022-11-21T18:01:19.379Z,8.48
2022-11-21T18:06:17.399Z,12.73
2022-11-21T18:08:48.490Z,10.75
2022-11-21T18:11:19.294Z,11.23
2022-11-21T18:13:48.109Z,11.10
2022-11-21T18:16:17.882Z,9.38
2022-11-21T18:18:45.855Z,10.65
2022-11-21T18:21:15.274Z,10.20
2022-11-21T18:23:44.609Z,11.98
2022-11-21T18:26:17.716Z,11.15
2022-11-21T18:28:45.464Z,9.57
2022-11-21T18:31:14.990Z,8.02
2022-11-21T18:33:49.098Z,10.50
2022-11-21T18:36:19.737Z,7.55
2022-11-21T18:38:51.210Z,13.40
2022-11-21T18:41:25.679Z,11.07
2022-11-21T18:43:54.425Z,11.23
2022-11-21T18:46:24.152Z,13.13
2022-11-21T18:49:04.276Z,8.85
2022-11-21T18:51:33.364Z,9.27
2022-11-21T18:54:05.116Z,8.80
2022-11-21T18:56:34.581Z,10.07
2022-11-21T18:59:03.328Z,7.45
2022-11-21T19:01:32.773Z,6.47
2022-11-21T19:04:00.755Z,7.10
2022-11-21T19:06:29.422Z,7.55
2022-11-21T19:08:58.607Z,7.45
2022-11-21T19:11:28.507Z,15.10
2022-11-21T19:13:59.273Z,21.77
2022-11-21T19:16:28.764Z,26.67
2022-11-21T19:21:45.608Z,14.88
2022-11-21T19:24:14.959Z,10.02
2022-11-21T19:26:43.184Z,13.05
2022-11-21T19:29:12.810Z,9.60
2022-11-21T19:31:45.070Z,8.65
2022-11-21T19:34:13.996Z,12.35
2022-11-21T19:36:41.771Z,9.32
2022-11-21T19:39:10.013Z,10.10
2022-11-21T19:41:38.285Z,23.02
2022-11-21T19:44:06.184Z,18.08
2022-11-21T19:46:36.785Z,31.10
2022-11-21T19:49:05.703Z,11.23
2022-11-21T19:51:35.672Z,13.63
2022-11-21T19:54:03.720Z,10.43
2022-11-21T19:56:31.483Z,11.45
2022-11-21T19:58:59.500Z,15.57
2022-11-21T20:01:29.080Z,13.38
2022-11-21T20:04:00.340Z,10.38
2022-11-21T20:06:30.678Z,7.35
2022-11-21T20:08:59.822Z,15.90
2022-11-21T20:11:28.650Z,11.82
2022-11-21T20:13:57.148Z,7.80
2022-11-21T20:16:27.045Z,7.47
2022-11-21T20:18:57.094Z,12.02
2022-11-21T20:21:26.562Z,10.23
2022-11-21T20:23:54.479Z,8.55
2022-11-21T20:26:23.288Z,12.93
2022-11-21T20:28:51.591Z,13.82
2022-11-21T20:31:21.077Z,10.50
2022-11-21T20:33:50.190Z,12.82
2022-11-21T20:36:20.978Z,8.18
2022-11-21T20:38:53.798Z,8.80
2022-11-21T20:41:22.435Z,5.90
2022-11-21T20:46:42.342Z,7.47
2022-11-21T20:49:10.350Z,10.30
2022-11-21T20:54:27.883Z,9.60
2022-11-21T20:56:55.875Z,6.88
2022-11-21T20:59:23.601Z,7.90
2022-11-21T21:01:51.379Z,11.05
2022-11-21T21:04:19.102Z,10.85
2022-11-21T21:06:46.847Z,9.95
2022-11-21T21:09:14.586Z,10.82
2022-11-21T21:11:52.506Z,9.25
2022-11-21T21:14:21.110Z,8.95
2022-11-21T21:16:48.998Z,9.98
2022-11-21T21:19:17.020Z,7.65
2022-11-21T21:21:44.876Z,12.13
2022-11-21T21:24:13.687Z,11.85
2022-11-21T21:26:44.886Z,9.20
2022-11-21T21:29:13.880Z,6.82
2022-11-21T21:31:47.073Z,8.45
2022-11-21T21:34:17.770Z,11.32
2022-11-21T21:36:45.885Z,6.70
2022-11-21T21:39:13.852Z,7.03
2022-11-21T21:41:44.731Z,10.43
2022-11-21T21:44:14.283Z,7.03
2022-11-21T21:46:42.177Z,10.50
2022-11-21T21:49:09.903Z,7.32
2022-11-21T21:51:38.085Z,12.50
2022-11-21T21:54:06.324Z,7.60
2022-11-21T21:56:34.698Z,11.20
2022-11-21T21:59:02.476Z,7.45
2022-11-21T22:01:33.345Z,9.13
2022-11-21T22:04:03.408Z,14.75
2022-11-21T22:06:35.776Z,9.95
2022-11-21T22:09:04.843Z,15.75
2022-11-21T22:11:36.561Z,11.27
2022-11-21T22:14:07.195Z,9.05
2022-11-21T22:16:36.297Z,24.88
2022-11-21T22:19:03.985Z,10.95
2022-11-21T22:21:33.312Z,9.38
2022-11-21T22:24:24.803Z,10.73
2022-11-21T22:26:50.310Z,7.72
2022-11-21T22:29:20.687Z,15.32
2022-11-21T22:31:50.785Z,14.80
2022-11-21T22:34:18.549Z,13.50
2022-11-21T22:36:46.725Z,9.77
2022-11-21T22:39:15.299Z,12.63
2022-11-21T22:41:42.957Z,7.97
2022-11-21T22:44:10.752Z,11.35
2022-11-21T22:46:38.603Z,9.20
2022-11-21T22:49:07.679Z,9.80
2022-11-21T22:51:35.341Z,8.20
2022-11-21T22:54:03.052Z,8.05
2022-11-21T22:56:30.722Z,8.32
2022-11-21T22:58:58.393Z,6.70
2022-11-21T23:01:29.849Z,12.98
2022-11-21T23:03:57.592Z,7.13
2022-11-21T23:06:27.729Z,9.10
2022-11-21T23:08:56.847Z,14.00
2022-11-21T23:11:27.670Z,6.97
2022-11-21T23:13:56.953Z,10.55
2022-11-21T23:16:25.069Z,9.85
2022-11-21T23:18:53.635Z,7.28
2022-11-21T23:21:21.690Z,7.03
2022-11-21T23:23:50.844Z,13.82
2022-11-21T23:26:18.824Z,8.73
2022-11-21T23:28:46.560Z,7.70
2022-11-21T23:31:14.425Z,7.68
2022-11-21T23:33:42.191Z,7.93
2022-11-21T23:36:09.939Z,6.18
2022-11-21T23:38:37.649Z,7.45
2022-11-21T23:41:06.770Z,7.63
2022-11-21T23:43:34.510Z,5.07
2022-11-21T23:46:02.239Z,5.28
2022-11-21T23:48:29.981Z,6.85
2022-11-21T23:50:57.732Z,7.38
2022-11-21T23:53:25.413Z,7.20
2022-11-21T23:55:53.155Z,6.13
2022-11-21T23:58:33.398Z,8.20
